Time;durP1;ratioP1;P1;durP2;ratioP2;P2;SDS_P1;SDS_P2;PMS_P1;PMS_P2;Temp;Humidity;BMP_temperature;BMP_pressure;BME280_temperature;BME280_humidity;BME280_pressure;Samples;Min_cycle;Max_cycle;Signal;HPM_P1;HPM_P2
2023/07/07 00:00:20;;;;;;;5.88;2.53;;;11.60;91.40;;;;;;5040248;28;20082;-62
2023/07/07 00:02:46;;;;;;;3.03;2.10;;;11.50;91.20;;;;;;5028419;28;20038;-62
2023/07/07 00:05:11;;;;;;;3.10;2.63;;;11.40;91.20;;;;;;5034362;28;20079;-63
2023/07/07 00:07:37;;;;;;;4.68;2.22;;;11.40;91.30;;;;;;5041236;28;20071;-62
2023/07/07 00:10:03;;;;;;;4.45;2.20;;;11.30;91.50;;;;;;5030677;28;20544;-62
2023/07/07 00:12:30;;;;;;;3.45;2.17;;;11.30;91.70;;;;;;5037936;28;20139;-63
2023/07/07 00:14:55;;;;;;;3.90;2.72;;;11.30;91.80;;;;;;5036178;28;20144;-63
2023/07/07 00:17:21;;;;;;;5.32;2.35;;;11.30;92.00;;;;;;5037011;28;20045;-62
2023/07/07 00:19:47;;;;;;;2.92;2.60;;;11.20;92.00;;;;;;5035800;28;20040;-63
2023/07/07 00:22:12;;;;;;;6.63;3.10;;;11.20;92.20;;;;;;5035355;28;20059;-63
2023/07/07 00:24:38;;;;;;;5.35;2.70;;;11.20;92.40;;;;;;5038328;28;20434;-63
2023/07/07 00:27:04;;;;;;;4.50;2.70;;;11.10;92.50;;;;;;5035648;28;20052;-62
2023/07/07 00:29:30;;;;;;;9.05;4.00;;;11.10;92.40;;;;;;5038481;28;20048;-63
2023/07/07 00:31:57;;;;;;;6.68;3.08;;;11.10;92.50;;;;;;5039291;28;20041;-62
2023/07/07 00:34:22;;;;;;;7.05;3.50;;;11.00;92.60;;;;;;5035952;28;20045;-62
2023/07/07 00:36:48;;;;;;;5.47;3.10;;;11.00;92.80;;;;;;5039488;28;20156;-62
2023/07/07 00:39:14;;;;;;;7.15;3.97;;;11.00;92.90;;;;;;5039000;28;20199;-63
2023/07/07 00:41:40;;;;;;;6.90;4.68;;;11.00;93.10;;;;;;5031651;28;20041;-62
2023/07/07 00:44:11;;;;;;;9.27;4.28;;;11.00;93.40;;;;;;5043386;28;20037;-63
2023/07/07 00:46:37;;;;;;;9.43;4.55;;;11.00;93.70;;;;;;5044324;28;20045;-63
2023/07/07 00:49:08;;;;;;;6.93;4.38;;;11.00;93.80;;;;;;5043261;28;20057;-62
2023/07/07 00:51:41;;;;;;;8.02;5.13;;;11.10;94.10;;;;;;5031256;28;20041;-63
2023/07/07 00:54:14;;;;;;;10.27;5.20;;;11.10;94.40;;;;;;5034690;28;20705;-62
2023/07/07 00:56:44;;;;;;;11.55;5.70;;;11.10;94.40;;;;;;5017540;28;20068;-62
2023/07/07 00:59:16;;;;;;;11.45;6.60;;;11.20;94.70;;;;;;5028191;28;20758;-62
2023/07/07 01:01:42;;;;;;;11.80;6.90;;;11.20;94.70;;;;;;5028374;28;20412;-63
2023/07/07 01:04:14;;;;;;;10.23;6.03;;;11.20;94.70;;;;;;5038770;28;20075;-63
2023/07/07 01:06:43;;;;;;;11.45;6.25;;;11.30;95.00;;;;;;5036382;28;20048;-63
2023/07/07 01:09:09;;;;;;;9.75;6.80;;;11.30;95.10;;;;;;5039345;28;20171;-63
2023/07/07 01:11:36;;;;;;;12.10;6.93;;;11.30;95.10;;;;;;5037480;28;20232;-62
2023/07/07 01:14:06;;;;;;;9.45;6.25;;;11.30;95.30;;;;;;5037350;28;20041;-63
2023/07/07 01:16:55;;;;;;;13.73;7.72;;;11.30;95.40;;;;;;5041662;28;20052;-63
2023/07/07 01:19:36;;;;;;;14.88;6.97;;;11.30;96.00;;;;;;5020424;28;20048;-62
2023/07/07 01:22:10;;;;;;;;;;;11.30;95.60;;;;;;5039264;28;20037;-63
2023/07/07 01:25:01;;;;;;;10.30;6.93;;;11.30;97.20;;;;;;5040322;28;20988;-62
2023/07/07 01:27:45;;;;;;;10.60;6.57;;;11.30;95.80;;;;;;5040886;28;20041;-63
2023/07/07 01:30:25;;;;;;;9.38;6.63;;;11.20;96.20;;;;;;5032086;28;20120;-62
2023/07/07 01:32:51;;;;;;;;;;;11.30;96.30;;;;;;5052509;28;20047;-62
2023/07/07 01:35:19;;;;;;;12.13;6.88;;;11.20;97.70;;;;;;5056609;28;20142;-62
2023/07/07 01:38:00;;;;;;;13.35;6.97;;;11.20;96.00;;;;;;5043455;28;20041;-62
2023/07/07 01:40:39;;;;;;;11.13;7.03;;;11.20;96.70;;;;;;5034633;28;20044;-62
2023/07/07 01:43:12;;;;;;;11.40;6.75;;;11.20;96.40;;;;;;5034937;28;20098;-62
2023/07/07 01:45:59;;;;;;;12.77;7.20;;;11.20;96.40;;;;;;5030021;28;20099;-62
2023/07/07 01:48:55;;;;;;;10.45;6.80;;;11.20;96.70;;;;;;5039689;28;20099;-63
2023/07/07 01:51:24;;;;;;;9.93;6.45;;;11.10;96.80;;;;;;5028853;28;20342;-62
2023/07/07 01:53:52;;;;;;;10.82;6.10;;;11.10;96.50;;;;;;5039775;28;20077;-62
2023/07/07 01:56:22;;;;;;;13.52;6.40;;;11.00;96.50;;;;;;5045847;28;20045;-63
2023/07/07 01:58:48;;;;;;;10.90;7.30;;;11.00;96.60;;;;;;5041944;28;20030;-63
2023/07/07 02:01:14;;;;;;;13.23;7.22;;;11.00;96.80;;;;;;5027760;28;20041;-62
2023/07/07 02:03:40;;;;;;;11.48;7.32;;;11.00;97.00;;;;;;5028538;28;20089;-62
2023/07/07 02:06:05;;;;;;;10.73;6.75;;;11.00;97.10;;;;;;5029634;28;20043;-62
2023/07/07 02:08:32;;;;;;;12.45;7.57;;;11.00;97.20;;;;;;5032408;28;20144;-62
2023/07/07 02:10:57;;;;;;;13.32;7.65;;;10.90;97.30;;;;;;5032792;28;20037;-62
2023/07/07 02:13:23;;;;;;;11.35;7.05;;;10.90;97.40;;;;;;5043638;28;20083;-63
2023/07/07 02:15:50;;;;;;;10.38;6.60;;;10.90;97.50;;;;;;5030743;28;20079;-63
2023/07/07 02:18:16;;;;;;;11.95;6.95;;;10.90;97.80;;;;;;5043401;28;20036;-62
2023/07/07 02:20:42;;;;;;;10.10;6.05;;;10.90;98.00;;;;;;5034233;28;20099;-62
2023/07/07 02:23:07;;;;;;;10.95;6.80;;;10.90;98.20;;;;;;5037921;28;20069;-63
2023/07/07 02:25:33;;;;;;;12.85;6.65;;;10.80;98.30;;;;;;5031029;28;20037;-63
2023/07/07 02:27:58;;;;;;;11.10;6.88;;;10.80;98.40;;;;;;5030710;28;20245;-63
2023/07/07 02:30:25;;;;;;;11.70;7.03;;;10.80;98.40;;;;;;5030447;28;20110;-62
2023/07/07 02:32:50;;;;;;;11.50;6.70;;;10.80;98.50;;;;;;5039294;28;20088;-63
2023/07/07 02:35:16;;;;;;;13.55;7.30;;;10.80;98.60;;;;;;5045433;28;20466;-63
2023/07/07 02:37:42;;;;;;;10.45;6.20;;;10.70;98.60;;;;;;5037552;28;20418;-63
2023/07/07 02:40:09;;;;;;;11.93;7.10;;;10.70;98.70;;;;;;5035879;28;20158;-62
2023/07/07 02:42:35;;;;;;;13.15;6.97;;;10.70;98.90;;;;;;5032125;28;20063;-63
2023/07/07 02:45:01;;;;;;;12.20;6.93;;;10.70;99.10;;;;;;5038846;28;20072;-63
2023/07/07 02:47:28;;;;;;;10.30;7.05;;;10.70;99.20;;;;;;5042284;28;20441;-63
2023/07/07 02:49:54;;;;;;;11.80;7.70;;;10.70;99.30;;;;;;5045456;28;20092;-62
2023/07/07 02:52:19;;;;;;;14.35;6.43;;;10.70;99.30;;;;;;5042555;28;20144;-62
2023/07/07 02:54:45;;;;;;;11.73;6.53;;;10.60;99.30;;;;;;5041658;28;20053;-62
2023/07/07 02:57:10;;;;;;;10.77;6.93;;;10.60;99.50;;;;;;5039135;28;20468;-62
2023/07/07 02:59:36;;;;;;;11.30;6.55;;;10.60;99.50;;;;;;5033672;28;20351;-62
2023/07/07 03:02:02;;;;;;;12.57;6.72;;;10.60;99.60;;;;;;5026064;28;20024;-62
2023/07/07 03:04:28;;;;;;;13.93;6.90;;;10.60;99.60;;;;;;5050157;28;20041;-63
2023/07/07 03:06:53;;;;;;;11.63;7.30;;;10.60;99.80;;;;;;5033087;28;20033;-62
2023/07/07 03:09:19;;;;;;;12.55;7.35;;;10.50;99.80;;;;;;5043918;28;20132;-62
2023/07/07 03:11:45;;;;;;;17.92;7.18;;;10.60;99.90;;;;;;5029307;28;20036;-62
2023/07/07 03:14:10;;;;;;;13.43;6.75;;;10.50;99.90;;;;;;5040989;28;20045;-62
2023/07/07 03:16:36;;;;;;;12.00;6.40;;;10.50;99.90;;;;;;5033876;28;20548;-62
2023/07/07 03:19:05;;;;;;;10.43;6.90;;;10.50;99.90;;;;;;5025835;28;20055;-63
2023/07/07 03:21:34;;;;;;;15.45;7.55;;;10.50;99.90;;;;;;5037287;28;20417;-62
2023/07/07 03:23:59;;;;;;;12.43;7.63;;;10.50;99.90;;;;;;5039540;28;20094;-62
2023/07/07 03:26:27;;;;;;;12.40;7.10;;;10.50;99.90;;;;;;5039305;28;20039;-62
2023/07/07 03:28:53;;;;;;;10.45;7.57;;;10.50;99.90;;;;;;5033392;28;20041;-62
2023/07/07 03:31:26;;;;;;;13.68;8.18;;;10.50;99.90;;;;;;5031825;28;20401;-62
2023/07/07 03:33:54;;;;;;;15.05;7.68;;;10.40;99.90;;;;;;5034628;28;20486;-62
2023/07/07 03:36:22;;;;;;;13.85;7.03;;;10.40;99.90;;;;;;5034868;28;20361;-62
2023/07/07 03:38:48;;;;;;;13.07;7.00;;;10.40;99.90;;;;;;5033856;28;20040;-63
2023/07/07 03:41:16;;;;;;;10.90;7.70;;;10.40;99.90;;;;;;5036061;28;20049;-62
2023/07/07 03:43:44;;;;;;;14.73;7.70;;;10.40;99.90;;;;;;5032604;28;20038;-63
2023/07/07 03:46:17;;;;;;;13.43;7.97;;;10.30;99.90;;;;;;5042418;28;20413;-62
2023/07/07 03:48:44;;;;;;;11.75;7.13;;;10.30;99.90;;;;;;5038965;28;20075;-62
2023/07/07 03:51:10;;;;;;;11.48;6.53;;;10.30;99.90;;;;;;5040283;28;20175;-62
2023/07/07 03:53:36;;;;;;;14.73;7.85;;;10.30;99.90;;;;;;5038025;28;20113;-62
2023/07/07 03:56:02;;;;;;;10.50;8.07;;;10.30;99.90;;;;;;5034607;28;20147;-62
2023/07/07 03:58:29;;;;;;;14.68;8.38;;;10.30;99.90;;;;;;5027324;28;20461;-62
2023/07/07 04:00:59;;;;;;;14.25;9.18;;;10.30;99.90;;;;;;5034771;28;20029;-62
2023/07/07 04:03:25;;;;;;;15.27;9.18;;;10.30;99.90;;;;;;5041924;28;20041;-63
2023/07/07 04:05:51;;;;;;;14.32;7.25;;;10.30;99.90;;;;;;5032867;28;20057;-62
2023/07/07 04:08:22;;;;;;;13.35;7.32;;;10.40;99.90;;;;;;5014335;28;20045;-62
2023/07/07 04:11:19;;;;;;;10.90;7.10;;;10.40;99.90;;;;;;5037798;28;20045;-62
2023/07/07 04:13:46;;;;;;;10.25;6.40;;;10.50;99.90;;;;;;5036050;28;20220;-62
2023/07/07 04:16:18;;;;;;;11.07;6.97;;;10.40;99.90;;;;;;5037311;28;20076;-64
2023/07/07 04:18:45;;;;;;;12.75;8.32;;;10.50;99.90;;;;;;5036860;28;20135;-62
2023/07/07 04:21:18;;;;;;;12.80;8.30;;;10.50;99.90;;;;;;5045129;28;20033;-63
2023/07/07 04:23:46;;;;;;;13.27;8.18;;;10.50;99.90;;;;;;5040175;28;20071;-62
2023/07/07 04:26:12;;;;;;;14.90;8.82;;;10.50;99.90;;;;;;5037858;28;20037;-63
2023/07/07 04:28:38;;;;;;;15.60;9.20;;;10.60;99.90;;;;;;5039663;28;20075;-62
2023/07/07 04:31:07;;;;;;;14.95;8.57;;;10.60;99.90;;;;;;5037108;28;20105;-63
2023/07/07 04:33:33;;;;;;;14.35;8.30;;;10.70;99.90;;;;;;5035351;28;20128;-63
2023/07/07 04:36:01;;;;;;;16.52;9.43;;;10.80;99.90;;;;;;5044581;28;20045;-67
2023/07/07 04:38:31;;;;;;;16.30;9.48;;;10.90;99.90;;;;;;5042532;28;22996;-62
2023/07/07 04:41:04;;;;;;;15.50;9.25;;;11.00;99.90;;;;;;5047426;28;20098;-62
2023/07/07 04:43:30;;;;;;;15.32;9.77;;;11.10;99.90;;;;;;5046468;28;20076;-62
2023/07/07 04:45:55;;;;;;;15.43;9.68;;;11.20;99.90;;;;;;5032413;28;20072;-62
2023/07/07 04:48:21;;;;;;;16.40;9.77;;;11.30;99.90;;;;;;5043605;28;20099;-62
2023/07/07 04:50:46;;;;;;;16.42;9.55;;;11.40;99.90;;;;;;5040801;28;20455;-62
2023/07/07 04:53:12;;;;;;;17.20;9.75;;;11.60;99.90;;;;;;5034716;28;20406;-62
2023/07/07 04:55:45;;;;;;;24.48;10.80;;;11.70;99.90;;;;;;5041429;28;20417;-63
2023/07/07 04:58:11;;;;;;;20.35;10.70;;;11.90;99.90;;;;;;5038486;28;20029;-63
2023/07/07 05:00:36;;;;;;;18.92;11.35;;;12.00;99.90;;;;;;5032039;28;20045;-63
2023/07/07 05:03:03;;;;;;;17.05;11.02;;;12.20;99.90;;;;;;5031355;28;20037;-62
2023/07/07 05:05:28;;;;;;;21.35;11.00;;;12.40;99.90;;;;;;5040676;28;20075;-63
2023/07/07 05:07:54;;;;;;;19.10;11.45;;;12.60;99.90;;;;;;5033985;28;20032;-63
2023/07/07 05:10:19;;;;;;;22.77;12.60;;;12.80;99.90;;;;;;5038801;28;20098;-63
2023/07/07 05:12:45;;;;;;;24.55;13.13;;;13.00;99.90;;;;;;5030298;28;20148;-63
2023/07/07 05:15:11;;;;;;;22.92;12.13;;;13.30;99.90;;;;;;5033242;28;20183;-64
2023/07/07 05:17:36;;;;;;;23.88;12.77;;;13.60;99.90;;;;;;5045483;28;20120;-65
2023/07/07 05:20:02;;;;;;;20.67;12.85;;;13.80;99.90;;;;;;5041172;28;20059;-63
2023/07/07 05:22:29;;;;;;;19.13;12.05;;;14.10;99.90;;;;;;5036311;28;20037;-63
2023/07/07 05:24:54;;;;;;;22.88;13.18;;;14.30;99.90;;;;;;5035965;28;20041;-63
2023/07/07 05:27:20;;;;;;;24.10;12.93;;;14.50;99.90;;;;;;5042908;28;20484;-64
2023/07/07 05:29:45;;;;;;;20.25;12.20;;;14.70;99.90;;;;;;5033180;28;20041;-63
2023/07/07 05:32:11;;;;;;;17.15;11.98;;;14.90;99.90;;;;;;5034903;28;20034;-64
2023/07/07 05:34:36;;;;;;;18.33;12.48;;;15.10;99.90;;;;;;5032920;28;20049;-64
2023/07/07 05:37:02;;;;;;;16.85;11.55;;;15.30;99.90;;;;;;5034535;28;20039;-65
2023/07/07 05:39:28;;;;;;;19.02;10.82;;;15.40;99.90;;;;;;5034806;28;20041;-64
2023/07/07 05:41:53;;;;;;;16.42;9.68;;;15.60;99.90;;;;;;5041064;28;20037;-64
2023/07/07 05:44:19;;;;;;;15.75;10.68;;;15.80;99.90;;;;;;5041741;28;20043;-64
2023/07/07 05:46:44;;;;;;;17.75;9.55;;;16.00;99.90;;;;;;5034354;28;20365;-64
2023/07/07 05:49:10;;;;;;;15.57;8.95;;;16.20;99.90;;;;;;5019481;28;20047;-65
2023/07/07 05:51:35;;;;;;;13.90;8.80;;;16.40;99.90;;;;;;5032862;28;20053;-63
2023/07/07 05:54:01;;;;;;;13.75;8.75;;;16.50;99.90;;;;;;5042115;28;20041;-65
2023/07/07 05:56:27;;;;;;;12.52;8.23;;;16.80;99.20;;;;;;5043765;28;20541;-64
2023/07/07 05:58:54;;;;;;;10.30;7.35;;;17.00;98.40;;;;;;5044825;28;20135;-64
2023/07/07 06:01:25;;;;;;;10.02;7.65;;;17.20;97.30;;;;;;5037442;28;20037;-64
2023/07/07 06:03:50;;;;;;;9.20;6.32;;;17.40;96.40;;;;;;5032678;28;20033;-64
2023/07/07 06:06:16;;;;;;;10.43;7.38;;;17.70;95.20;;;;;;5043297;28;20051;-64
2023/07/07 06:08:42;;;;;;;11.40;6.32;;;17.90;93.70;;;;;;5041237;28;20136;-65
2023/07/07 06:11:08;;;;;;;10.43;6.40;;;18.20;92.70;;;;;;5034176;28;20048;-63
2023/07/07 06:13:33;;;;;;;10.13;6.55;;;18.30;90.00;;;;;;5035152;28;20036;-64
2023/07/07 06:15:59;;;;;;;10.75;6.13;;;18.40;90.00;;;;;;5038053;28;21989;-64
2023/07/07 06:18:25;;;;;;;7.30;5.85;;;18.60;88.90;;;;;;5034120;28;20063;-65
2023/07/07 06:20:53;;;;;;;10.45;5.78;;;18.70;79.40;;;;;;5035160;28;20115;-63
2023/07/07 06:23:19;;;;;;;11.05;5.75;;;18.90;80.00;;;;;;5041567;28;20033;-65
2023/07/07 06:25:47;;;;;;;12.68;5.22;;;19.10;82.10;;;;;;5028652;28;20038;-64
2023/07/07 06:28:12;;;;;;;10.02;5.60;;;19.30;79.60;;;;;;5036051;28;20446;-63
2023/07/07 06:30:38;;;;;;;10.35;4.95;;;19.50;75.20;;;;;;5041992;28;20052;-64
2023/07/07 06:33:03;;;;;;;11.23;5.38;;;19.60;76.70;;;;;;5033533;28;20037;-65
2023/07/07 06:35:29;;;;;;;6.43;5.05;;;19.80;76.20;;;;;;5040889;28;20053;-63
2023/07/07 06:37:55;;;;;;;9.48;5.22;;;20.20;75.50;;;;;;5030927;28;20124;-62
2023/07/07 06:40:21;;;;;;;7.72;5.15;;;20.20;73.80;;;;;;5034162;28;20069;-65
2023/07/07 06:42:48;;;;;;;8.95;4.47;;;20.40;71.90;;;;;;5047131;28;20049;-64
2023/07/07 06:45:13;;;;;;;6.60;4.65;;;20.60;70.70;;;;;;5042330;28;20053;-65
2023/07/07 06:47:39;;;;;;;7.05;4.43;;;20.80;69.80;;;;;;5046790;28;20143;-64
2023/07/07 06:50:05;;;;;;;7.22;4.35;;;20.60;68.80;;;;;;5045366;28;20501;-66
2023/07/07 06:52:31;;;;;;;6.47;4.28;;;20.80;68.20;;;;;;5036645;28;20495;-65
2023/07/07 06:54:57;;;;;;;6.90;4.25;;;21.00;67.20;;;;;;5030219;28;20046;-65
2023/07/07 06:57:23;;;;;;;7.55;4.70;;;21.10;66.00;;;;;;5027255;28;20112;-64
2023/07/07 06:59:48;;;;;;;8.35;4.00;;;21.40;65.40;;;;;;5044758;28;20139;-64
2023/07/07 07:02:14;;;;;;;5.50;4.25;;;21.40;62.20;;;;;;5043513;28;20068;-66
2023/07/07 07:04:40;;;;;;;6.82;3.85;;;21.70;64.20;;;;;;5034478;28;20049;-63
2023/07/07 07:07:08;;;;;;;6.78;3.58;;;21.70;63.50;;;;;;5044542;28;20619;-64
2023/07/07 07:09:34;;;;;;;6.60;3.65;;;21.60;59.00;;;;;;5032841;28;20478;-63
2023/07/07 07:12:00;;;;;;;6.47;3.63;;;21.90;62.30;;;;;;5037408;28;20098;-65
2023/07/07 07:14:25;;;;;;;5.25;3.42;;;22.20;61.50;;;;;;5022302;28;20125;-64
2023/07/07 07:16:51;;;;;;;4.97;3.28;;;22.10;60.90;;;;;;5040682;28;20037;-64
2023/07/07 07:19:16;;;;;;;8.15;3.10;;;22.50;61.00;;;;;;5017445;28;20089;-65
2023/07/07 07:21:42;;;;;;;9.68;3.67;;;22.70;60.50;;;;;;5051167;28;20043;-64
2023/07/07 07:24:07;;;;;;;7.72;3.05;;;22.80;58.80;;;;;;5035377;28;20112;-65
2023/07/07 07:26:33;;;;;;;5.60;2.85;;;23.10;56.90;;;;;;5033124;28;20088;-65
2023/07/07 07:28:58;;;;;;;5.85;2.30;;;23.00;55.80;;;;;;5043710;28;20453;-64
2023/07/07 07:31:26;;;;;;;3.35;2.30;;;23.20;55.90;;;;;;5029012;28;20469;-65
2023/07/07 07:33:54;;;;;;;3.83;2.50;;;23.50;54.00;;;;;;5032212;28;20045;-64
2023/07/07 07:36:21;;;;;;;4.70;2.10;;;23.30;52.60;;;;;;5035046;28;20544;-65
2023/07/07 07:38:47;;;;;;;4.22;2.40;;;23.70;53.00;;;;;;5050444;28;20114;-67
2023/07/07 07:41:12;;;;;;;5.53;2.63;;;24.00;51.90;;;;;;5032628;28;20060;-65
2023/07/07 07:43:38;;;;;;;5.65;2.25;;;24.20;50.50;;;;;;5027488;28;20120;-64
2023/07/07 07:46:04;;;;;;;3.72;2.30;;;24.00;48.80;;;;;;5034667;28;20037;-65
2023/07/07 07:48:29;;;;;;;4.80;2.33;;;24.30;50.00;;;;;;5041682;28;20068;-66
2023/07/07 07:50:55;;;;;;;4.47;2.20;;;24.70;48.90;;;;;;5044691;28;20047;-65
2023/07/07 07:53:22;;;;;;;3.30;2.25;;;24.90;47.90;;;;;;5031410;28;20115;-65
2023/07/07 07:55:48;;;;;;;4.60;2.40;;;24.90;47.50;;;;;;5037017;28;20361;-65
2023/07/07 07:58:13;;;;;;;4.72;2.10;;;25.10;47.10;;;;;;5040484;28;20041;-65
2023/07/07 08:00:39;;;;;;;3.30;2.38;;;25.40;46.40;;;;;;5030251;28;20155;-64
2023/07/07 08:03:04;;;;;;;3.78;2.10;;;25.60;46.10;;;;;;5041527;28;20450;-64
2023/07/07 08:05:31;;;;;;;3.05;2.10;;;25.70;45.00;;;;;;5037486;28;20116;-66
2023/07/07 08:07:57;;;;;;;3.42;1.92;;;25.90;45.40;;;;;;5044598;28;20083;-67
2023/07/07 08:10:23;;;;;;;5.40;2.03;;;26.10;44.40;;;;;;5047742;28;20119;-67
2023/07/07 08:12:48;;;;;;;4.53;1.92;;;25.80;44.30;;;;;;5042671;28;20065;-66
2023/07/07 08:15:14;;;;;;;4.00;2.05;;;25.90;41.50;;;;;;5025729;28;20143;-65
2023/07/07 08:17:39;;;;;;;4.72;2.22;;;25.60;42.70;;;;;;5031233;28;20049;-67
2023/07/07 08:20:05;;;;;;;4.43;2.03;;;25.70;41.90;;;;;;5015095;28;20048;-64
2023/07/07 08:22:31;;;;;;;4.38;2.25;;;26.00;42.70;;;;;;5036135;28;20072;-64
2023/07/07 08:24:58;;;;;;;4.53;2.13;;;26.40;41.70;;;;;;5032090;28;20096;-66
2023/07/07 08:27:26;;;;;;;5.80;2.08;;;26.70;40.40;;;;;;5040021;28;20039;-65
2023/07/07 08:29:53;;;;;;;4.68;2.47;;;26.90;39.60;;;;;;5040376;28;20068;-65
2023/07/07 08:32:21;;;;;;;2.97;1.80;;;27.20;40.10;;;;;;5041207;28;20381;-64
2023/07/07 08:34:51;;;;;;;3.42;1.90;;;27.50;37.40;;;;;;5048891;28;20250;-64
2023/07/07 08:37:19;;;;;;;5.93;2.50;;;27.20;38.80;;;;;;5044122;28;20111;-66
2023/07/07 08:39:46;;;;;;;3.47;1.77;;;27.50;38.20;;;;;;5043465;28;20040;-67
2023/07/07 08:42:21;;;;;;;4.07;1.80;;;27.80;37.40;;;;;;5032964;28;20095;-64
2023/07/07 08:44:47;;;;;;;4.97;1.98;;;28.00;36.40;;;;;;5043880;28;20075;-67
2023/07/07 08:47:40;;;;;;;3.17;1.60;;;28.50;36.80;;;;;;5028185;28;20040;-65
2023/07/07 08:50:11;;;;;;;2.63;1.63;;;29.00;33.70;;;;;;5043169;28;20140;-67
2023/07/07 08:52:39;;;;;;;2.38;1.65;;;29.30;34.00;;;;;;5042980;28;20144;-65
2023/07/07 08:55:29;;;;;;;3.80;1.92;;;29.50;33.30;;;;;;5034163;28;20110;-67
2023/07/07 08:58:10;;;;;;;4.28;1.98;;;29.70;32.00;;;;;;5014144;28;20501;-66
2023/07/07 09:01:01;;;;;;;3.25;1.90;;;29.90;31.50;;;;;;5039951;28;20044;-65
2023/07/07 09:03:54;;;;;;;2.10;1.45;;;30.20;30.00;;;;;;5019824;28;20048;-65
2023/07/07 09:06:29;;;;;;;3.35;1.90;;;30.20;30.50;;;;;;5031925;28;20045;-65
2023/07/07 09:09:08;;;;;;;2.28;1.70;;;30.00;30.50;;;;;;5038677;28;20048;-66
2023/07/07 09:11:37;;;;;;;3.53;1.75;;;30.60;30.00;;;;;;5036554;28;20037;-66
2023/07/07 09:14:03;;;;;;;2.90;1.67;;;31.00;29.80;;;;;;5041885;28;20052;-67
2023/07/07 09:16:33;;;;;;;4.70;1.80;;;31.00;29.20;;;;;;5034753;28;20059;-67
2023/07/07 09:19:04;;;;;;;;;;;31.70;29.30;;;;;;5030826;28;20033;-66
2023/07/07 09:21:45;;;;;;;3.30;1.70;;;32.10;28.10;;;;;;5037611;28;20333;-65
2023/07/07 09:24:32;;;;;;;2.60;1.92;;;32.50;28.10;;;;;;5048308;28;20108;-65
2023/07/07 09:27:13;;;;;;;2.28;1.65;;;32.60;27.00;;;;;;5044347;28;20591;-65
2023/07/07 09:29:39;;;;;;;3.22;2.30;;;32.80;25.90;;;;;;5047907;28;20049;-64
2023/07/07 09:32:05;;;;;;;4.28;2.00;;;32.90;27.40;;;;;;5029004;28;20107;-66
2023/07/07 09:34:32;;;;;;;3.20;1.52;;;33.00;27.40;;;;;;5040208;28;20037;-64
2023/07/07 09:37:25;;;;;;;4.05;2.05;;;33.50;27.50;;;;;;5039197;28;20068;-68
2023/07/07 09:40:11;;;;;;;2.83;2.08;;;33.40;26.30;;;;;;5050744;28;20380;-68
2023/07/07 09:43:02;;;;;;;3.75;1.50;;;33.70;26.20;;;;;;5049039;28;20056;-65
2023/07/07 09:45:27;;;;;;;4.13;2.08;;;33.60;26.50;;;;;;5029573;28;20064;-66
2023/07/07 09:48:37;;;;;;;3.08;1.85;;;33.80;26.90;;;;;;5025550;28;20045;-64
2023/07/07 09:51:34;;;;;;;3.70;2.10;;;33.70;26.20;;;;;;5037197;28;20551;-67
2023/07/07 09:54:00;;;;;;;4.75;1.90;;;33.20;24.60;;;;;;5008013;28;20123;-67
2023/07/07 09:56:34;;;;;;;3.55;2.05;;;32.60;26.00;;;;;;5035214;28;20385;-65
2023/07/07 09:59:12;;;;;;;3.50;1.73;;;31.90;26.30;;;;;;5048595;28;20442;-67
2023/07/07 10:01:44;;;;;;;3.22;1.77;;;32.00;26.40;;;;;;5045734;28;20033;-65
2023/07/07 10:04:13;;;;;;;2.05;1.60;;;32.70;26.60;;;;;;5049000;28;20378;-66
2023/07/07 10:06:56;;;;;;;3.10;2.00;;;33.20;25.20;;;;;;5045172;28;20120;-66
2023/07/07 10:09:21;;;;;;;2.35;1.90;;;33.40;25.30;;;;;;5042392;28;20120;-68
2023/07/07 10:11:48;;;;;;;3.30;1.60;;;33.90;25.40;;;;;;5031436;28;20071;-65
2023/07/07 10:14:15;;;;;;;4.28;2.08;;;34.40;25.50;;;;;;5047907;28;20037;-66
2023/07/07 10:17:00;;;;;;;2.63;1.55;;;34.30;24.80;;;;;;5038853;28;20052;-67
2023/07/07 10:19:26;;;;;;;4.90;2.08;;;34.40;24.10;;;;;;5037092;28;20094;-65
2023/07/07 10:21:52;;;;;;;3.20;1.75;;;34.50;24.80;;;;;;5036526;28;20036;-66
2023/07/07 10:24:18;;;;;;;2.72;1.85;;;34.40;24.50;;;;;;5026890;28;20039;-66
2023/07/07 10:26:47;;;;;;;4.32;1.85;;;34.60;24.30;;;;;;5032042;28;20104;-67
2023/07/07 10:29:23;;;;;;;4.00;1.67;;;34.70;24.30;;;;;;5038861;28;20497;-64
2023/07/07 10:31:51;;;;;;;3.65;2.05;;;34.90;23.90;;;;;;5032585;28;20053;-65
2023/07/07 10:34:36;;;;;;;3.10;1.80;;;35.20;24.10;;;;;;5045929;28;20041;-66
2023/07/07 10:37:01;;;;;;;3.70;2.13;;;35.60;23.80;;;;;;5041447;28;20484;-67
2023/07/07 10:39:30;;;;;;;4.28;1.75;;;36.10;23.40;;;;;;5046747;28;20056;-66
2023/07/07 10:41:56;;;;;;;4.13;2.22;;;36.00;23.00;;;;;;5043596;28;20045;-64
2023/07/07 10:44:26;;;;;;;2.80;1.63;;;35.80;22.90;;;;;;5036366;28;20075;-66
2023/07/07 10:46:52;;;;;;;3.78;2.10;;;35.90;22.60;;;;;;5033034;28;20377;-66
2023/07/07 10:49:20;;;;;;;2.70;1.70;;;35.60;23.10;;;;;;5045087;28;20068;-66
2023/07/07 10:52:09;;;;;;;2.38;1.63;;;35.90;22.70;;;;;;5041150;28;20045;-66
2023/07/07 10:55:03;;;;;;;3.10;2.03;;;35.90;21.70;;;;;;5034657;28;20135;-64
2023/07/07 10:57:48;;;;;;;2.72;1.80;;;36.00;22.70;;;;;;5042132;28;20059;-65
2023/07/07 11:00:42;;;;;;;4.28;2.00;;;34.80;22.90;;;;;;5042717;28;20706;-65
2023/07/07 11:03:36;;;;;;;3.50;2.03;;;33.90;23.30;;;;;;5046919;28;20366;-67
2023/07/07 11:06:23;;;;;;;3.75;1.90;;;32.60;24.50;;;;;;5046638;28;20033;-66
2023/07/07 11:09:07;;;;;;;4.05;1.88;;;31.20;25.30;;;;;;5045435;28;20032;-67
2023/07/07 11:11:40;;;;;;;3.28;2.20;;;30.40;26.40;;;;;;5040128;28;20769;-65
2023/07/07 11:14:13;;;;;;;4.45;1.75;;;29.80;26.60;;;;;;5043166;28;20041;-66
2023/07/07 11:16:57;;;;;;;2.95;1.90;;;29.40;27.30;;;;;;5033646;28;20049;-65
2023/07/07 11:19:25;;;;;;;3.55;1.85;;;29.10;27.70;;;;;;5040050;28;20345;-65
2023/07/07 11:22:12;;;;;;;3.03;2.10;;;28.80;28.20;;;;;;5040873;28;20334;-64
2023/07/07 11:24:56;;;;;;;3.22;1.92;;;28.50;28.40;;;;;;5046645;28;20127;-67
2023/07/07 11:27:40;;;;;;;3.60;1.90;;;28.50;28.80;;;;;;5046281;28;20120;-63
2023/07/07 11:30:13;;;;;;;5.15;2.13;;;28.30;28.70;;;;;;5047013;28;20111;-65
2023/07/07 11:32:45;;;;;;;4.10;2.08;;;28.10;28.50;;;;;;5042313;28;20038;-65
2023/07/07 11:35:33;;;;;;;3.72;1.80;;;28.10;28.50;;;;;;5028574;28;20053;-65
2023/07/07 11:38:15;;;;;;;2.47;1.73;;;28.10;29.00;;;;;;5049062;28;20079;-62
2023/07/07 11:41:18;;;;;;;2.60;1.90;;;28.00;28.50;;;;;;5047669;28;20062;-66
2023/07/07 11:44:05;;;;;;;3.60;2.25;;;27.90;29.60;;;;;;5033171;28;20064;-66
2023/07/07 11:46:52;;;;;;;3.35;1.83;;;28.10;30.00;;;;;;5027688;28;20081;-65
2023/07/07 11:49:48;;;;;;;2.92;1.90;;;28.10;29.60;;;;;;5059845;28;20174;-64
2023/07/07 11:52:19;;;;;;;4.28;1.95;;;28.00;29.30;;;;;;5044477;28;20041;-62
2023/07/07 11:55:04;;;;;;;5.53;2.70;;;27.70;29.20;;;;;;5040075;28;20520;-65
2023/07/07 11:57:44;;;;;;;5.32;1.92;;;27.60;29.10;;;;;;5040855;28;20180;-65
2023/07/07 12:00:27;;;;;;;2.53;1.50;;;27.70;27.80;;;;;;5034457;28;20106;-61
2023/07/07 12:03:14;;;;;;;4.68;1.80;;;27.80;27.40;;;;;;5034777;28;20417;-64
2023/07/07 12:05:41;;;;;;;3.50;2.35;;;27.80;28.40;;;;;;5045876;28;20067;-65
2023/07/07 12:08:15;;;;;;;3.33;2.05;;;27.90;28.40;;;;;;5032569;28;20045;-63
2023/07/07 12:10:51;;;;;;;2.80;1.90;;;28.10;28.00;;;;;;5043156;28;20041;-66
2023/07/07 12:13:30;;;;;;;5.78;2.00;;;27.90;28.90;;;;;;5037112;28;20043;-63
2023/07/07 12:16:15;;;;;;;4.20;2.45;;;28.00;28.70;;;;;;5037822;28;20049;-65
2023/07/07 12:18:45;;;;;;;2.85;1.90;;;28.30;28.60;;;;;;5040171;28;20120;-64
2023/07/07 12:21:23;;;;;;;2.72;1.80;;;28.90;27.90;;;;;;5047533;28;20064;-65
2023/07/07 12:24:07;;;;;;;3.33;2.00;;;29.60;27.00;;;;;;5045934;28;20033;-65
2023/07/07 12:26:41;;;;;;;4.18;2.00;;;30.90;26.90;;;;;;5028574;28;20057;-66
2023/07/07 12:29:09;;;;;;;3.30;2.03;;;32.20;25.20;;;;;;5044682;28;20105;-65
2023/07/07 12:31:35;;;;;;;3.78;2.05;;;32.50;24.90;;;;;;5040758;28;20090;-67
2023/07/07 12:34:18;;;;;;;4.10;2.00;;;32.50;24.60;;;;;;5045337;28;20393;-63
2023/07/07 12:36:46;;;;;;;4.18;2.03;;;33.40;23.30;;;;;;5046092;28;20427;-64
2023/07/07 12:39:12;;;;;;;3.58;2.17;;;33.70;23.80;;;;;;5047277;28;20086;-65
2023/07/07 12:41:38;;;;;;;3.70;1.77;;;33.70;23.20;;;;;;5030812;28;20045;-66
2023/07/07 12:44:05;;;;;;;3.72;2.08;;;34.80;22.80;;;;;;5049395;28;20037;-66
2023/07/07 12:46:33;;;;;;;2.83;2.08;;;36.20;22.00;;;;;;5047973;28;20045;-67
2023/07/07 12:49:04;;;;;;;5.30;2.60;;;37.20;21.10;;;;;;5014021;28;20413;-67
2023/07/07 12:51:32;;;;;;;4.97;2.08;;;38.40;20.60;;;;;;5026687;28;20119;-66
2023/07/07 12:53:58;;;;;;;5.18;1.90;;;39.10;19.80;;;;;;5047930;28;20082;-68
2023/07/07 12:56:26;;;;;;;5.55;2.00;;;39.40;19.50;;;;;;5042600;28;20083;-65
2023/07/07 12:58:55;;;;;;;4.43;1.88;;;39.00;19.30;;;;;;5051721;28;20112;-66